sensor_id;sensor_type;location;lat;lon;timestamp;pressure;altitude;pressure_sealevel;temperature
20058;BMP180;10189;49.546;7.906;2023-07-02T00:01:48;97513.00;;;17.20
20058;BMP180;10189;49.546;7.906;2023-07-02T00:04:15;97510.00;;;17.10
20058;BMP180;10189;49.546;7.906;2023-07-02T00:06:48;97510.00;;;17.00
20058;BMP180;10189;49.546;7.906;2023-07-02T00:09:15;97519.00;;;16.90
20058;BMP180;10189;49.546;7.906;2023-07-02T00:11:44;97513.00;;;16.90
20058;BMP180;10189;49.546;7.906;2023-07-02T00:14:12;97511.00;;;16.80
20058;BMP180;10189;49.546;7.906;2023-07-02T00:16:45;97512.00;;;16.70
20058;BMP180;10189;49.546;7.906;2023-07-02T00:19:13;97514.00;;;16.60
20058;BMP180;10189;49.546;7.906;2023-07-02T00:21:40;97515.00;;;16.70
20058;BMP180;10189;49.546;7.906;2023-07-02T00:24:08;97510.00;;;16.50
20058;BMP180;10189;49.546;7.906;2023-07-02T00:26:38;97520.00;;;16.50
20058;BMP180;10189;49.546;7.906;2023-07-02T00:29:05;97514.00;;;16.40
20058;BMP180;10189;49.546;7.906;2023-07-02T00:31:32;97517.00;;;16.40
20058;BMP180;10189;49.546;7.906;2023-07-02T00:33:59;97514.00;;;16.40
20058;BMP180;10189;49.546;7.906;2023-07-02T00:36:27;97515.00;;;16.30
20058;BMP180;10189;49.546;7.906;2023-07-02T00:38:54;97511.00;;;16.20
20058;BMP180;10189;49.546;7.906;2023-07-02T00:41:20;97514.00;;;16.20
20058;BMP180;10189;49.546;7.906;2023-07-02T00:43:46;97514.00;;;16.10
20058;BMP180;10189;49.546;7.906;2023-07-02T00:46:17;97522.00;;;16.00
20058;BMP180;10189;49.546;7.906;2023-07-02T00:48:56;97524.00;;;16.00
20058;BMP180;10189;49.546;7.906;2023-07-02T00:51:27;97527.00;;;16.10
20058;BMP180;10189;49.546;7.906;2023-07-02T00:53:56;97526.00;;;16.10
20058;BMP180;10189;49.546;7.906;2023-07-02T00:56:24;97534.00;;;16.20
20058;BMP180;10189;49.546;7.906;2023-07-02T00:58:53;97528.00;;;16.10
20058;BMP180;10189;49.546;7.906;2023-07-02T01:01:22;97531.00;;;16.10
20058;BMP180;10189;49.546;7.906;2023-07-02T01:04:05;97534.00;;;16.10
20058;BMP180;10189;49.546;7.906;2023-07-02T01:06:35;97529.00;;;16.20
20058;BMP180;10189;49.546;7.906;2023-07-02T01:09:05;97532.00;;;16.10
20058;BMP180;10189;49.546;7.906;2023-07-02T01:11:43;97520.00;;;16.10
20058;BMP180;10189;49.546;7.906;2023-07-02T01:14:16;97527.00;;;16.10
20058;BMP180;10189;49.546;7.906;2023-07-02T01:16:43;97521.00;;;16.10
20058;BMP180;10189;49.546;7.906;2023-07-02T01:22:00;97524.00;;;16.20
20058;BMP180;10189;49.546;7.906;2023-07-02T01:24:28;97528.00;;;16.30
20058;BMP180;10189;49.546;7.906;2023-07-02T01:26:54;97533.00;;;16.20
20058;BMP180;10189;49.546;7.906;2023-07-02T01:29:21;97531.00;;;16.10
20058;BMP180;10189;49.546;7.906;2023-07-02T01:31:48;97536.00;;;16.20
20058;BMP180;10189;49.546;7.906;2023-07-02T01:34:14;97531.00;;;16.30
20058;BMP180;10189;49.546;7.906;2023-07-02T01:36:41;97538.00;;;16.30
20058;BMP180;10189;49.546;7.906;2023-07-02T01:39:07;97537.00;;;16.40
20058;BMP180;10189;49.546;7.906;2023-07-02T01:42:14;97533.00;;;16.30
20058;BMP180;10189;49.546;7.906;2023-07-02T01:44:43;97534.00;;;16.40
20058;BMP180;10189;49.546;7.906;2023-07-02T01:47:10;97538.00;;;16.30
20058;BMP180;10189;49.546;7.906;2023-07-02T01:49:37;97543.00;;;16.40
20058;BMP180;10189;49.546;7.906;2023-07-02T01:52:04;97533.00;;;16.40
20058;BMP180;10189;49.546;7.906;2023-07-02T01:54:32;97534.00;;;16.30
20058;BMP180;10189;49.546;7.906;2023-07-02T01:56:59;97534.00;;;16.30
20058;BMP180;10189;49.546;7.906;2023-07-02T01:59:25;97537.00;;;16.30
20058;BMP180;10189;49.546;7.906;2023-07-02T02:01:51;97533.00;;;16.20
20058;BMP180;10189;49.546;7.906;2023-07-02T02:04:18;97548.00;;;16.20
20058;BMP180;10189;49.546;7.906;2023-07-02T02:06:44;97548.00;;;16.20
20058;BMP180;10189;49.546;7.906;2023-07-02T02:09:11;97548.00;;;16.30
20058;BMP180;10189;49.546;7.906;2023-07-02T02:11:44;97549.00;;;16.20
20058;BMP180;10189;49.546;7.906;2023-07-02T02:14:10;97567.00;;;16.10
20058;BMP180;10189;49.546;7.906;2023-07-02T02:16:36;97550.00;;;16.20
20058;BMP180;10189;49.546;7.906;2023-07-02T02:19:03;97565.00;;;16.10
20058;BMP180;10189;49.546;7.906;2023-07-02T02:21:30;97570.00;;;16.00
20058;BMP180;10189;49.546;7.906;2023-07-02T02:23:56;97567.00;;;16.00
20058;BMP180;10189;49.546;7.906;2023-07-02T02:26:23;97559.00;;;15.90
20058;BMP180;10189;49.546;7.906;2023-07-02T02:28:51;97563.00;;;15.90
20058;BMP180;10189;49.546;7.906;2023-07-02T02:31:17;97566.00;;;15.90
20058;BMP180;10189;49.546;7.906;2023-07-02T02:33:43;97557.00;;;15.80
20058;BMP180;10189;49.546;7.906;2023-07-02T02:36:10;97561.00;;;15.80
20058;BMP180;10189;49.546;7.906;2023-07-02T02:38:35;97571.00;;;15.90
20058;BMP180;10189;49.546;7.906;2023-07-02T02:41:04;97565.00;;;16.10
20058;BMP180;10189;49.546;7.906;2023-07-02T02:43:34;97559.00;;;16.10
20058;BMP180;10189;49.546;7.906;2023-07-02T02:46:02;97558.00;;;16.10
20058;BMP180;10189;49.546;7.906;2023-07-02T02:48:28;97558.00;;;16.00
20058;BMP180;10189;49.546;7.906;2023-07-02T02:50:54;97558.00;;;16.00
20058;BMP180;10189;49.546;7.906;2023-07-02T02:53:19;97551.00;;;15.90
20058;BMP180;10189;49.546;7.906;2023-07-02T02:55:45;97549.00;;;15.80
20058;BMP180;10189;49.546;7.906;2023-07-02T02:58:11;97562.00;;;15.80
20058;BMP180;10189;49.546;7.906;2023-07-02T03:00:37;97555.00;;;15.90
20058;BMP180;10189;49.546;7.906;2023-07-02T03:03:04;97560.00;;;15.90
20058;BMP180;10189;49.546;7.906;2023-07-02T03:05:30;97557.00;;;16.00
20058;BMP180;10189;49.546;7.906;2023-07-02T03:07:56;97560.00;;;16.00
20058;BMP180;10189;49.546;7.906;2023-07-02T03:10:22;97568.00;;;16.00
20058;BMP180;10189;49.546;7.906;2023-07-02T03:12:48;97560.00;;;15.90
20058;BMP180;10189;49.546;7.906;2023-07-02T03:15:14;97557.00;;;16.10
20058;BMP180;10189;49.546;7.906;2023-07-02T03:17:40;97562.00;;;16.10
20058;BMP180;10189;49.546;7.906;2023-07-02T03:20:06;97569.00;;;16.20
20058;BMP180;10189;49.546;7.906;2023-07-02T03:22:35;97561.00;;;16.20
20058;BMP180;10189;49.546;7.906;2023-07-02T03:25:01;97564.00;;;16.30
20058;BMP180;10189;49.546;7.906;2023-07-02T03:27:27;97579.00;;;16.20
20058;BMP180;10189;49.546;7.906;2023-07-02T03:29:53;97572.00;;;16.20
20058;BMP180;10189;49.546;7.906;2023-07-02T03:32:19;97572.00;;;16.10
20058;BMP180;10189;49.546;7.906;2023-07-02T03:34:45;97570.00;;;16.20
20058;BMP180;10189;49.546;7.906;2023-07-02T03:37:11;97577.00;;;16.20
20058;BMP180;10189;49.546;7.906;2023-07-02T03:39:36;97577.00;;;16.30
20058;BMP180;10189;49.546;7.906;2023-07-02T03:42:04;97577.00;;;16.30
20058;BMP180;10189;49.546;7.906;2023-07-02T03:44:30;97580.00;;;16.30
20058;BMP180;10189;49.546;7.906;2023-07-02T03:46:56;97584.00;;;16.40
20058;BMP180;10189;49.546;7.906;2023-07-02T03:49:21;97582.00;;;16.40
20058;BMP180;10189;49.546;7.906;2023-07-02T03:51:47;97576.00;;;16.40
20058;BMP180;10189;49.546;7.906;2023-07-02T03:54:13;97592.00;;;16.40
20058;BMP180;10189;49.546;7.906;2023-07-02T03:56:39;97594.00;;;16.40
20058;BMP180;10189;49.546;7.906;2023-07-02T03:59:05;97587.00;;;16.30
20058;BMP180;10189;49.546;7.906;2023-07-02T04:01:30;97598.00;;;16.30
20058;BMP180;10189;49.546;7.906;2023-07-02T04:03:56;97606.00;;;16.20
20058;BMP180;10189;49.546;7.906;2023-07-02T04:06:22;97605.00;;;16.30
20058;BMP180;10189;49.546;7.906;2023-07-02T04:08:48;97614.00;;;16.20
20058;BMP180;10189;49.546;7.906;2023-07-02T04:11:15;97604.00;;;16.20
20058;BMP180;10189;49.546;7.906;2023-07-02T04:13:41;97607.00;;;16.10
20058;BMP180;10189;49.546;7.906;2023-07-02T04:16:07;97606.00;;;16.20
20058;BMP180;10189;49.546;7.906;2023-07-02T04:18:33;97613.00;;;16.20
20058;BMP180;10189;49.546;7.906;2023-07-02T04:21:00;97611.00;;;16.20
20058;BMP180;10189;49.546;7.906;2023-07-02T04:23:26;97622.00;;;16.20
20058;BMP180;10189;49.546;7.906;2023-07-02T04:25:52;97621.00;;;16.20
20058;BMP180;10189;49.546;7.906;2023-07-02T04:28:18;97617.00;;;16.30
20058;BMP180;10189;49.546;7.906;2023-07-02T04:30:44;97616.00;;;16.40
20058;BMP180;10189;49.546;7.906;2023-07-02T04:33:13;97614.00;;;16.50
20058;BMP180;10189;49.546;7.906;2023-07-02T04:35:40;97614.00;;;16.70
20058;BMP180;10189;49.546;7.906;2023-07-02T04:38:06;97618.00;;;16.90
20058;BMP180;10189;49.546;7.906;2023-07-02T04:40:32;97619.00;;;17.10
20058;BMP180;10189;49.546;7.906;2023-07-02T04:42:58;97621.00;;;17.20
20058;BMP180;10189;49.546;7.906;2023-07-02T04:45:27;97615.00;;;17.40
20058;BMP180;10189;49.546;7.906;2023-07-02T04:47:57;97604.00;;;17.40
20058;BMP180;10189;49.546;7.906;2023-07-02T04:50:25;97623.00;;;17.50
20058;BMP180;10189;49.546;7.906;2023-07-02T04:52:54;97620.00;;;17.60
20058;BMP180;10189;49.546;7.906;2023-07-02T04:55:21;97618.00;;;17.70
20058;BMP180;10189;49.546;7.906;2023-07-02T04:57:47;97618.00;;;17.80
20058;BMP180;10189;49.546;7.906;2023-07-02T05:00:13;97619.00;;;17.90
20058;BMP180;10189;49.546;7.906;2023-07-02T05:02:40;97627.00;;;17.90
20058;BMP180;10189;49.546;7.906;2023-07-02T05:05:07;97625.00;;;18.10
20058;BMP180;10189;49.546;7.906;2023-07-02T05:07:33;97624.00;;;18.20
20058;BMP180;10189;49.546;7.906;2023-07-02T05:09:59;97628.00;;;18.20
20058;BMP180;10189;49.546;7.906;2023-07-02T05:12:24;97641.00;;;18.30
20058;BMP180;10189;49.546;7.906;2023-07-02T05:14:50;97638.00;;;18.30
20058;BMP180;10189;49.546;7.906;2023-07-02T05:17:16;97640.00;;;18.50
20058;BMP180;10189;49.546;7.906;2023-07-02T05:19:43;97636.00;;;18.50
20058;BMP180;10189;49.546;7.906;2023-07-02T05:22:09;97634.00;;;18.50
20058;BMP180;10189;49.546;7.906;2023-07-02T05:24:36;97634.00;;;18.70
20058;BMP180;10189;49.546;7.906;2023-07-02T05:27:02;97640.00;;;18.70
20058;BMP180;10189;49.546;7.906;2023-07-02T05:29:28;97638.00;;;18.70
20058;BMP180;10189;49.546;7.906;2023-07-02T05:31:54;97652.00;;;18.80
20058;BMP180;10189;49.546;7.906;2023-07-02T05:34:20;97655.00;;;18.90
20058;BMP180;10189;49.546;7.906;2023-07-02T05:36:45;97653.00;;;18.90
20058;BMP180;10189;49.546;7.906;2023-07-02T05:39:12;97650.00;;;19.10
20058;BMP180;10189;49.546;7.906;2023-07-02T05:41:38;97648.00;;;18.90
20058;BMP180;10189;49.546;7.906;2023-07-02T05:44:04;97653.00;;;19.00
20058;BMP180;10189;49.546;7.906;2023-07-02T05:46:29;97649.00;;;19.20
20058;BMP180;10189;49.546;7.906;2023-07-02T05:48:55;97655.00;;;19.20
20058;BMP180;10189;49.546;7.906;2023-07-02T05:51:24;97644.00;;;19.50
20058;BMP180;10189;49.546;7.906;2023-07-02T05:53:51;97646.00;;;19.70
20058;BMP180;10189;49.546;7.906;2023-07-02T05:56:17;97638.00;;;19.90
20058;BMP180;10189;49.546;7.906;2023-07-02T05:58:45;97637.00;;;19.80
20058;BMP180;10189;49.546;7.906;2023-07-02T06:01:12;97641.00;;;19.60
20058;BMP180;10189;49.546;7.906;2023-07-02T06:03:38;97642.00;;;19.90
20058;BMP180;10189;49.546;7.906;2023-07-02T06:06:04;97636.00;;;19.90
20058;BMP180;10189;49.546;7.906;2023-07-02T06:08:29;97631.00;;;20.10
20058;BMP180;10189;49.546;7.906;2023-07-02T06:10:55;97647.00;;;19.70
20058;BMP180;10189;49.546;7.906;2023-07-02T06:13:21;97642.00;;;19.70
20058;BMP180;10189;49.546;7.906;2023-07-02T06:15:47;97646.00;;;19.80
20058;BMP180;10189;49.546;7.906;2023-07-02T06:18:13;97645.00;;;20.10
20058;BMP180;10189;49.546;7.906;2023-07-02T06:20:39;97643.00;;;20.10
20058;BMP180;10189;49.546;7.906;2023-07-02T06:23:05;97653.00;;;20.30
20058;BMP180;10189;49.546;7.906;2023-07-02T06:25:31;97651.00;;;20.20
20058;BMP180;10189;49.546;7.906;2023-07-02T06:27:57;97658.00;;;20.30
20058;BMP180;10189;49.546;7.906;2023-07-02T06:30:24;97662.00;;;20.30
20058;BMP180;10189;49.546;7.906;2023-07-02T06:32:51;97665.00;;;20.60
20058;BMP180;10189;49.546;7.906;2023-07-02T06:35:17;97658.00;;;20.40
20058;BMP180;10189;49.546;7.906;2023-07-02T06:37:43;97659.00;;;20.40
20058;BMP180;10189;49.546;7.906;2023-07-02T06:40:10;97666.00;;;20.50
20058;BMP180;10189;49.546;7.906;2023-07-02T06:42:36;97666.00;;;20.30
20058;BMP180;10189;49.546;7.906;2023-07-02T06:45:03;97667.00;;;20.50
20058;BMP180;10189;49.546;7.906;2023-07-02T06:47:29;97663.00;;;20.80
20058;BMP180;10189;49.546;7.906;2023-07-02T06:49:55;97668.00;;;21.00
20058;BMP180;10189;49.546;7.906;2023-07-02T06:52:21;97666.00;;;21.10
20058;BMP180;10189;49.546;7.906;2023-07-02T06:54:47;97666.00;;;21.10
20058;BMP180;10189;49.546;7.906;2023-07-02T06:57:13;97675.00;;;20.60
20058;BMP180;10189;49.546;7.906;2023-07-02T06:59:39;97662.00;;;20.20
20058;BMP180;10189;49.546;7.906;2023-07-02T07:02:05;97678.00;;;20.60
20058;BMP180;10189;49.546;7.906;2023-07-02T07:04:31;97675.00;;;20.80
20058;BMP180;10189;49.546;7.906;2023-07-02T07:06:57;97685.00;;;21.10
20058;BMP180;10189;49.546;7.906;2023-07-02T07:09:23;97681.00;;;21.40
20058;BMP180;10189;49.546;7.906;2023-07-02T07:11:49;97685.00;;;21.40
20058;BMP180;10189;49.546;7.906;2023-07-02T07:14:15;97683.00;;;21.40
20058;BMP180;10189;49.546;7.906;2023-07-02T07:16:41;97690.00;;;21.10
20058;BMP180;10189;49.546;7.906;2023-07-02T07:19:07;97683.00;;;21.30
20058;BMP180;10189;49.546;7.906;2023-07-02T07:21:34;97682.00;;;21.70
20058;BMP180;10189;49.546;7.906;2023-07-02T07:24:00;97680.00;;;21.80
20058;BMP180;10189;49.546;7.906;2023-07-02T07:26:26;97684.00;;;21.90
20058;BMP180;10189;49.546;7.906;2023-07-02T07:28:52;97692.00;;;21.00
20058;BMP180;10189;49.546;7.906;2023-07-02T07:31:20;97690.00;;;21.00
20058;BMP180;10189;49.546;7.906;2023-07-02T07:33:46;97682.00;;;21.20
20058;BMP180;10189;49.546;7.906;2023-07-02T07:36:11;97698.00;;;21.40
20058;BMP180;10189;49.546;7.906;2023-07-02T07:38:38;97688.00;;;20.70
20058;BMP180;10189;49.546;7.906;2023-07-02T07:41:04;97685.00;;;21.30
20058;BMP180;10189;49.546;7.906;2023-07-02T07:43:29;97685.00;;;21.80
20058;BMP180;10189;49.546;7.906;2023-07-02T07:45:55;97698.00;;;22.60
20058;BMP180;10189;49.546;7.906;2023-07-02T07:48:21;97696.00;;;22.00
20058;BMP180;10189;49.546;7.906;2023-07-02T07:50:47;97692.00;;;21.70
20058;BMP180;10189;49.546;7.906;2023-07-02T07:53:13;97705.00;;;21.40
20058;BMP180;10189;49.546;7.906;2023-07-02T07:55:39;97709.00;;;21.60
20058;BMP180;10189;49.546;7.906;2023-07-02T07:58:05;97702.00;;;22.10
20058;BMP180;10189;49.546;7.906;2023-07-02T08:00:30;97692.00;;;22.40
20058;BMP180;10189;49.546;7.906;2023-07-02T08:02:56;97686.00;;;22.50
20058;BMP180;10189;49.546;7.906;2023-07-02T08:05:22;97693.00;;;22.60
20058;BMP180;10189;49.546;7.906;2023-07-02T08:07:49;97690.00;;;22.80
20058;BMP180;10189;49.546;7.906;2023-07-02T08:10:14;97692.00;;;22.00
20058;BMP180;10189;49.546;7.906;2023-07-02T08:12:40;97692.00;;;22.00
20058;BMP180;10189;49.546;7.906;2023-07-02T08:15:07;97694.00;;;21.80
20058;BMP180;10189;49.546;7.906;2023-07-02T08:17:33;97696.00;;;22.20
20058;BMP180;10189;49.546;7.906;2023-07-02T08:20:00;97706.00;;;22.30
20058;BMP180;10189;49.546;7.906;2023-07-02T08:22:25;97696.00;;;22.30
20058;BMP180;10189;49.546;7.906;2023-07-02T08:24:51;97708.00;;;22.10
20058;BMP180;10189;49.546;7.906;2023-07-02T08:27:17;97710.00;;;21.80
20058;BMP180;10189;49.546;7.906;2023-07-02T08:29:49;97728.00;;;21.50
20058;BMP180;10189;49.546;7.906;2023-07-02T08:32:17;97710.00;;;21.70
20058;BMP180;10189;49.546;7.906;2023-07-02T08:34:43;97713.00;;;21.70
20058;BMP180;10189;49.546;7.906;2023-07-02T08:37:09;97715.00;;;21.80
20058;BMP180;10189;49.546;7.906;2023-07-02T08:39:35;97713.00;;;22.40
20058;BMP180;10189;49.546;7.906;2023-07-02T08:42:03;97716.00;;;22.90
20058;BMP180;10189;49.546;7.906;2023-07-02T08:44:29;97706.00;;;22.40
20058;BMP180;10189;49.546;7.906;2023-07-02T08:46:55;97723.00;;;22.70
20058;BMP180;10189;49.546;7.906;2023-07-02T08:49:22;97723.00;;;22.50
20058;BMP180;10189;49.546;7.906;2023-07-02T08:51:48;97733.00;;;22.60
20058;BMP180;10189;49.546;7.906;2023-07-02T08:54:17;97713.00;;;22.50
20058;BMP180;10189;49.546;7.906;2023-07-02T08:56:45;97712.00;;;22.50
20058;BMP180;10189;49.546;7.906;2023-07-02T08:59:11;97718.00;;;22.10
20058;BMP180;10189;49.546;7.906;2023-07-02T09:01:52;97727.00;;;22.60
20058;BMP180;10189;49.546;7.906;2023-07-02T09:04:22;97731.00;;;22.10
20058;BMP180;10189;49.546;7.906;2023-07-02T09:07:05;97731.00;;;22.40
20058;BMP180;10189;49.546;7.906;2023-07-02T09:09:32;97730.00;;;22.80
20058;BMP180;10189;49.546;7.906;2023-07-02T09:11:58;97716.00;;;23.20
20058;BMP180;10189;49.546;7.906;2023-07-02T09:14:30;97722.00;;;23.60
20058;BMP180;10189;49.546;7.906;2023-07-02T09:17:09;97719.00;;;23.50
20058;BMP180;10189;49.546;7.906;2023-07-02T09:19:36;97729.00;;;23.20
20058;BMP180;10189;49.546;7.906;2023-07-02T09:22:03;97724.00;;;22.90
20058;BMP180;10189;49.546;7.906;2023-07-02T09:24:31;97739.00;;;23.20
20058;BMP180;10189;49.546;7.906;2023-07-02T09:27:01;97744.00;;;22.60
20058;BMP180;10189;49.546;7.906;2023-07-02T09:29:32;97735.00;;;23.60
20058;BMP180;10189;49.546;7.906;2023-07-02T09:32:01;97744.00;;;23.30
20058;BMP180;10189;49.546;7.906;2023-07-02T09:34:30;97729.00;;;23.70
20058;BMP180;10189;49.546;7.906;2023-07-02T09:36:58;97735.00;;;23.70
20058;BMP180;10189;49.546;7.906;2023-07-02T09:39:29;97730.00;;;23.30
20058;BMP180;10189;49.546;7.906;2023-07-02T09:41:58;97736.00;;;23.40
20058;BMP180;10189;49.546;7.906;2023-07-02T09:44:31;97735.00;;;23.50
20058;BMP180;10189;49.546;7.906;2023-07-02T09:47:07;97721.00;;;24.40
20058;BMP180;10189;49.546;7.906;2023-07-02T09:49:39;97724.00;;;24.60
20058;BMP180;10189;49.546;7.906;2023-07-02T09:52:11;97732.00;;;23.90
20058;BMP180;10189;49.546;7.906;2023-07-02T09:54:38;97725.00;;;23.70
20058;BMP180;10189;49.546;7.906;2023-07-02T09:57:05;97736.00;;;23.30
20058;BMP180;10189;49.546;7.906;2023-07-02T09:59:33;97742.00;;;23.00
20058;BMP180;10189;49.546;7.906;2023-07-02T10:01:59;97746.00;;;23.30
20058;BMP180;10189;49.546;7.906;2023-07-02T10:04:25;97740.00;;;23.20
20058;BMP180;10189;49.546;7.906;2023-07-02T10:06:54;97743.00;;;23.40
20058;BMP180;10189;49.546;7.906;2023-07-02T10:09:34;97741.00;;;23.90
20058;BMP180;10189;49.546;7.906;2023-07-02T10:12:00;97736.00;;;24.60
20058;BMP180;10189;49.546;7.906;2023-07-02T10:14:26;97730.00;;;24.80
20058;BMP180;10189;49.546;7.906;2023-07-02T10:16:54;97745.00;;;24.20
20058;BMP180;10189;49.546;7.906;2023-07-02T10:19:21;97741.00;;;23.90
20058;BMP180;10189;49.546;7.906;2023-07-02T10:22:01;97748.00;;;23.60
20058;BMP180;10189;49.546;7.906;2023-07-02T10:24:27;97748.00;;;23.60
20058;BMP180;10189;49.546;7.906;2023-07-02T10:26:57;97745.00;;;24.60
20058;BMP180;10189;49.546;7.906;2023-07-02T10:29:26;97748.00;;;25.00
20058;BMP180;10189;49.546;7.906;2023-07-02T10:31:54;97735.00;;;24.70
20058;BMP180;10189;49.546;7.906;2023-07-02T10:34:35;97745.00;;;24.70
20058;BMP180;10189;49.546;7.906;2023-07-02T10:37:03;97746.00;;;25.00
20058;BMP180;10189;49.546;7.906;2023-07-02T10:39:32;97740.00;;;25.50
20058;BMP180;10189;49.546;7.906;2023-07-02T10:42:08;97744.00;;;25.40
20058;BMP180;10189;49.546;7.906;2023-07-02T10:44:50;97741.00;;;25.40
20058;BMP180;10189;49.546;7.906;2023-07-02T10:47:17;97736.00;;;25.80
20058;BMP180;10189;49.546;7.906;2023-07-02T10:49:45;97753.00;;;25.50
20058;BMP180;10189;49.546;7.906;2023-07-02T10:52:11;97741.00;;;25.00
20058;BMP180;10189;49.546;7.906;2023-07-02T10:54:44;97749.00;;;24.80
20058;BMP180;10189;49.546;7.906;2023-07-02T10:57:14;97754.00;;;24.60
20058;BMP180;10189;49.546;7.906;2023-07-02T10:59:41;97748.00;;;24.30
20058;BMP180;10189;49.546;7.906;2023-07-02T11:02:08;97746.00;;;24.80
20058;BMP180;10189;49.546;7.906;2023-07-02T11:04:36;97741.00;;;25.20
20058;BMP180;10189;49.546;7.906;2023-07-02T11:07:04;97730.00;;;26.20
20058;BMP180;10189;49.546;7.906;2023-07-02T11:09:30;97752.00;;;26.20
20058;BMP180;10189;49.546;7.906;2023-07-02T11:11:59;97748.00;;;25.80
20058;BMP180;10189;49.546;7.906;2023-07-02T11:14:36;97752.00;;;25.40
20058;BMP180;10189;49.546;7.906;2023-07-02T11:17:05;97746.00;;;25.40
20058;BMP180;10189;49.546;7.906;2023-07-02T11:19:34;97746.00;;;24.90
20058;BMP180;10189;49.546;7.906;2023-07-02T11:22:01;97743.00;;;24.90
20058;BMP180;10189;49.546;7.906;2023-07-02T11:24:37;97738.00;;;24.90
20058;BMP180;10189;49.546;7.906;2023-07-02T11:27:04;97748.00;;;24.90
20058;BMP180;10189;49.546;7.906;2023-07-02T11:29:36;97738.00;;;24.90
20058;BMP180;10189;49.546;7.906;2023-07-02T11:32:10;97742.00;;;25.70
20058;BMP180;10189;49.546;7.906;2023-07-02T11:34:40;97737.00;;;24.90
20058;BMP180;10189;49.546;7.906;2023-07-02T11:37:06;97758.00;;;24.80
20058;BMP180;10189;49.546;7.906;2023-07-02T11:39:32;97746.00;;;25.20
20058;BMP180;10189;49.546;7.906;2023-07-02T11:41:58;97747.00;;;25.10
20058;BMP180;10189;49.546;7.906;2023-07-02T11:44:24;97751.00;;;24.90
20058;BMP180;10189;49.546;7.906;2023-07-02T11:46:50;97752.00;;;24.30
20058;BMP180;10189;49.546;7.906;2023-07-02T11:49:16;97761.00;;;24.60
20058;BMP180;10189;49.546;7.906;2023-07-02T11:51:43;97752.00;;;25.00
20058;BMP180;10189;49.546;7.906;2023-07-02T11:54:15;97755.00;;;25.60
20058;BMP180;10189;49.546;7.906;2023-07-02T11:56:41;97747.00;;;25.20
20058;BMP180;10189;49.546;7.906;2023-07-02T11:59:08;97735.00;;;25.40
20058;BMP180;10189;49.546;7.906;2023-07-02T12:01:34;97738.00;;;25.80
20058;BMP180;10189;49.546;7.906;2023-07-02T12:04:00;97742.00;;;25.10
20058;BMP180;10189;49.546;7.906;2023-07-02T12:06:26;97744.00;;;25.20
20058;BMP180;10189;49.546;7.906;2023-07-02T12:08:52;97734.00;;;25.40
20058;BMP180;10189;49.546;7.906;2023-07-02T12:11:18;97736.00;;;25.60
20058;BMP180;10189;49.546;7.906;2023-07-02T12:13:44;97748.00;;;25.10
20058;BMP180;10189;49.546;7.906;2023-07-02T12:16:10;97741.00;;;25.70
20058;BMP180;10189;49.546;7.906;2023-07-02T12:18:36;97747.00;;;24.80
20058;BMP180;10189;49.546;7.906;2023-07-02T12:21:01;97735.00;;;24.80
20058;BMP180;10189;49.546;7.906;2023-07-02T12:23:27;97738.00;;;25.40
20058;BMP180;10189;49.546;7.906;2023-07-02T12:25:53;97743.00;;;25.50
20058;BMP180;10189;49.546;7.906;2023-07-02T12:28:19;97738.00;;;25.40
20058;BMP180;10189;49.546;7.906;2023-07-02T12:30:45;97738.00;;;25.50
20058;BMP180;10189;49.546;7.906;2023-07-02T12:33:10;97737.00;;;25.10
20058;BMP180;10189;49.546;7.906;2023-07-02T12:35:36;97744.00;;;25.10
20058;BMP180;10189;49.546;7.906;2023-07-02T12:38:02;97731.00;;;25.80
20058;BMP180;10189;49.546;7.906;2023-07-02T12:40:33;97737.00;;;26.10
20058;BMP180;10189;49.546;7.906;2023-07-02T12:42:59;97735.00;;;26.80
20058;BMP180;10189;49.546;7.906;2023-07-02T12:45:25;97724.00;;;26.90
20058;BMP180;10189;49.546;7.906;2023-07-02T12:47:51;97729.00;;;26.40
20058;BMP180;10189;49.546;7.906;2023-07-02T12:50:18;97738.00;;;26.10
20058;BMP180;10189;49.546;7.906;2023-07-02T12:52:44;97734.00;;;25.90
20058;BMP180;10189;49.546;7.906;2023-07-02T12:55:10;97732.00;;;26.10
20058;BMP180;10189;49.546;7.906;2023-07-02T12:57:36;97729.00;;;25.60
20058;BMP180;10189;49.546;7.906;2023-07-02T13:00:03;97736.00;;;25.50
20058;BMP180;10189;49.546;7.906;2023-07-02T13:02:31;97736.00;;;25.50
20058;BMP180;10189;49.546;7.906;2023-07-02T13:04:57;97742.00;;;25.00
20058;BMP180;10189;49.546;7.906;2023-07-02T13:07:23;97739.00;;;25.20
20058;BMP180;10189;49.546;7.906;2023-07-02T13:09:49;97740.00;;;25.20
20058;BMP180;10189;49.546;7.906;2023-07-02T13:12:15;97737.00;;;25.70
20058;BMP180;10189;49.546;7.906;2023-07-02T13:14:42;97742.00;;;26.20
20058;BMP180;10189;49.546;7.906;2023-07-02T13:17:08;97727.00;;;25.30
20058;BMP180;10189;49.546;7.906;2023-07-02T13:19:34;97741.00;;;25.50
20058;BMP180;10189;49.546;7.906;2023-07-02T13:22:01;97737.00;;;25.60
20058;BMP180;10189;49.546;7.906;2023-07-02T13:24:33;97739.00;;;25.50
20058;BMP180;10189;49.546;7.906;2023-07-02T13:27:03;97724.00;;;25.30
20058;BMP180;10189;49.546;7.906;2023-07-02T13:29:30;97740.00;;;25.90
20058;BMP180;10189;49.546;7.906;2023-07-02T13:31:56;97730.00;;;25.50
20058;BMP180;10189;49.546;7.906;2023-07-02T13:34:22;97736.00;;;25.90
20058;BMP180;10189;49.546;7.906;2023-07-02T13:36:48;97732.00;;;26.50
20058;BMP180;10189;49.546;7.906;2023-07-02T13:39:14;97726.00;;;26.60
20058;BMP180;10189;49.546;7.906;2023-07-02T13:41:39;97738.00;;;26.70
20058;BMP180;10189;49.546;7.906;2023-07-02T13:44:05;97736.00;;;26.50
20058;BMP180;10189;49.546;7.906;2023-07-02T13:46:31;97741.00;;;26.10
20058;BMP180;10189;49.546;7.906;2023-07-02T13:48:57;97742.00;;;26.00
20058;BMP180;10189;49.546;7.906;2023-07-02T13:51:23;97732.00;;;26.40
20058;BMP180;10189;49.546;7.906;2023-07-02T13:53:48;97745.00;;;26.70
20058;BMP180;10189;49.546;7.906;2023-07-02T13:56:14;97738.00;;;26.50
20058;BMP180;10189;49.546;7.906;2023-07-02T14:01:21;97733.00;;;26.60
20058;BMP180;10189;49.546;7.906;2023-07-02T14:03:47;97729.00;;;26.80
20058;BMP180;10189;49.546;7.906;2023-07-02T14:06:13;97738.00;;;27.00
20058;BMP180;10189;49.546;7.906;2023-07-02T14:08:39;97749.00;;;26.10
20058;BMP180;10189;49.546;7.906;2023-07-02T14:11:05;97742.00;;;26.10
20058;BMP180;10189;49.546;7.906;2023-07-02T14:13:30;97742.00;;;26.70
20058;BMP180;10189;49.546;7.906;2023-07-02T14:15:56;97731.00;;;27.00